Time;durP1;ratioP1;P1;durP2;ratioP2;P2;SDS_P1;SDS_P2;PMS_P1;PMS_P2;Temp;Humidity;BMP_temperature;BMP_pressure;BME280_temperature;BME280_humidity;BME280_pressure;Samples;Min_cycle;Max_cycle;Signal;HPM_P1;HPM_P2
2021/07/09 00:02:00;;;;;;;10.13;2.30;;;;;;;17.12;84.81;101261.61;125815;1092;64323;-79
2021/07/09 00:04:27;;;;;;;5.60;1.95;;;;;;;17.11;84.71;101255.43;125605;1093;64301;-80
2021/07/09 00:06:55;;;;;;;6.00;2.17;;;;;;;17.11;84.52;101247.39;125644;1093;64753;-79
2021/07/09 00:09:23;;;;;;;4.93;2.23;;;;;;;17.09;84.75;101244.09;125064;1092;65362;-81
2021/07/09 00:11:52;;;;;;;3.77;2.53;;;;;;;17.07;84.53;101248.01;124928;1092;64437;-81
2021/07/09 00:14:26;;;;;;;3.83;2.33;;;;;;;17.02;84.71;101250.45;125137;1092;64321;-79
2021/07/09 00:16:54;;;;;;;8.03;2.23;;;;;;;17.01;84.83;101249.64;125160;1092;64308;-79
2021/07/09 00:19:22;;;;;;;5.15;2.35;;;;;;;17.00;84.79;101252.52;124931;1093;64224;-80
2021/07/09 00:21:52;;;;;;;3.97;2.20;;;;;;;16.99;84.92;101249.02;124956;1092;64343;-80
2021/07/09 00:24:20;;;;;;;5.13;2.37;;;;;;;16.98;84.99;101259.94;124920;1093;64288;-80
2021/07/09 00:26:47;;;;;;;3.30;1.87;;;;;;;17.01;85.20;101259.55;125252;1093;64284;-80
2021/07/09 00:29:14;;;;;;;4.57;2.17;;;;;;;17.00;85.02;101258.72;125168;1093;64306;-80
2021/07/09 00:31:42;;;;;;;3.17;2.30;;;;;;;16.99;85.05;101257.06;125251;1093;64340;-80
2021/07/09 00:34:09;;;;;;;4.33;2.53;;;;;;;16.99;85.28;101251.70;125030;1093;64305;-82
2021/07/09 00:36:36;;;;;;;6.50;2.47;;;;;;;16.98;85.51;101239.34;125197;1093;64349;-81
2021/07/09 00:39:05;;;;;;;4.63;2.00;;;;;;;16.97;85.45;101237.67;124992;1093;64320;-80
2021/07/09 00:41:33;;;;;;;7.33;2.40;;;;;;;16.95;85.65;101229.02;125076;1092;64460;-80
2021/07/09 00:44:00;;;;;;;3.90;2.00;;;;;;;16.95;85.84;101233.55;125291;1093;64300;-79
2021/07/09 00:46:29;;;;;;;6.50;2.80;;;;;;;16.91;86.60;101222.41;125057;1093;64368;-80
2021/07/09 00:48:56;;;;;;;5.30;2.27;;;;;;;16.86;86.86;101217.66;125272;1093;64221;-79
2021/07/09 00:51:24;;;;;;;4.80;2.53;;;;;;;16.83;87.76;101217.23;125202;1093;64255;-80
2021/07/09 00:53:51;;;;;;;7.20;2.60;;;;;;;16.82;88.02;101213.73;125050;1093;64285;-81
2021/07/09 00:56:20;;;;;;;4.93;2.60;;;;;;;16.81;87.99;101213.93;125337;1093;64282;-81
2021/07/09 00:58:48;;;;;;;4.97;1.97;;;;;;;16.80;88.57;101221.16;125816;1093;64236;-80
2021/07/09 01:01:16;;;;;;;8.07;2.80;;;;;;;16.77;88.63;101221.55;125819;1093;64150;-80
2021/07/09 01:03:44;;;;;;;6.83;2.50;;;;;;;16.74;88.49;101215.75;126095;1093;64374;-80
2021/07/09 01:06:15;;;;;;;6.07;2.63;;;;;;;16.75;88.47;101225.45;125648;1093;64304;-80
2021/07/09 01:08:43;;;;;;;5.27;2.83;;;;;;;16.77;88.48;101220.72;125491;1093;64377;-80
2021/07/09 01:11:11;;;;;;;5.83;2.60;;;;;;;16.77;88.10;101218.05;125112;1093;64354;-82
2021/07/09 01:13:41;;;;;;;8.67;2.50;;;;;;;16.77;88.49;101215.37;125083;1093;65154;-79
2021/07/09 01:16:10;;;;;;;5.67;2.73;;;;;;;16.77;88.48;101213.50;125230;1092;64984;-80
2021/07/09 01:18:37;;;;;;;6.90;2.97;;;;;;;16.77;88.69;101216.19;125029;1093;64362;-79
2021/07/09 01:21:07;;;;;;;6.10;3.43;;;;;;;16.79;88.78;101213.28;125080;1092;64304;-79
2021/07/09 01:23:36;;;;;;;5.10;2.83;;;;;;;16.81;88.83;101221.97;125121;1093;64269;-82
2021/07/09 01:26:05;;;;;;;5.80;4.23;;;;;;;16.84;88.87;101224.26;125179;1093;64389;-80
2021/07/09 01:28:33;;;;;;;5.27;2.80;;;;;;;16.87;88.83;101231.88;125052;1093;64279;-79
2021/07/09 01:31:05;;;;;;;7.17;2.67;;;;;;;16.88;88.78;101225.50;125130;1093;64693;-78
2021/07/09 01:33:32;;;;;;;6.00;2.30;;;;;;;16.91;88.65;101230.44;125023;1093;64355;-79
2021/07/09 01:35:59;;;;;;;5.00;2.63;;;;;;;16.91;88.40;101233.13;125065;1092;64208;-79
2021/07/09 01:38:26;;;;;;;8.03;2.93;;;;;;;16.93;88.50;101238.29;125043;1093;64282;-79
2021/07/09 01:40:54;;;;;;;3.80;2.30;;;;;;;16.93;88.30;101236.42;124933;1092;64348;-80
2021/07/09 01:43:23;;;;;;;5.00;2.20;;;;;;;16.96;88.37;101229.83;124997;1093;64358;-82
2021/07/09 01:45:51;;;;;;;3.60;2.37;;;;;;;16.92;88.10;101240.16;125327;1093;64875;-82
2021/07/09 01:48:18;;;;;;;5.83;2.43;;;;;;;16.86;88.18;101236.42;125178;1093;64266;-80
2021/07/09 01:50:45;;;;;;;3.77;2.83;;;;;;;16.82;88.37;101245.89;125027;1093;64310;-80
2021/07/09 01:53:13;;;;;;;7.33;2.90;;;;;;;16.80;88.51;101241.73;125144;1093;64330;-82
2021/07/09 01:55:40;;;;;;;5.07;2.80;;;;;;;16.82;88.94;101235.17;125114;1091;64320;-79
2021/07/09 01:58:07;;;;;;;5.90;2.73;;;;;;;16.86;89.12;101246.32;125135;1093;64329;-79
2021/07/09 02:00:34;;;;;;;5.50;2.77;;;;;;;16.89;89.15;101245.90;124955;1093;64269;-80
2021/07/09 02:03:02;;;;;;;7.90;2.90;;;;;;;16.94;89.00;101239.92;125105;1092;64664;-82
2021/07/09 02:05:30;;;;;;;6.00;2.93;;;;;;;16.96;88.95;101237.88;125228;1093;64422;-82
2021/07/09 02:07:57;;;;;;;5.60;2.90;;;;;;;16.97;89.03;101248.39;125135;1093;64211;-80
2021/07/09 02:10:31;;;;;;;6.90;3.47;;;;;;;16.97;88.99;101252.94;125083;1093;64349;-80
2021/07/09 02:13:00;;;;;;;3.93;2.63;;;;;;;16.97;88.98;101253.75;125145;1093;64352;-80
2021/07/09 02:15:33;;;;;;;7.60;2.70;;;;;;;16.94;88.90;101254.17;127824;1093;64293;-82
2021/07/09 02:18:01;;;;;;;6.03;3.03;;;;;;;16.90;88.96;101253.75;127922;1093;62597;-82
2021/07/09 02:20:30;;;;;;;4.23;3.00;;;;;;;16.88;89.11;101244.27;126794;1093;64301;-82
2021/07/09 02:22:59;;;;;;;6.03;3.10;;;;;;;16.88;89.56;101242.41;125275;1093;64288;-80
2021/07/09 02:25:26;;;;;;;4.43;3.10;;;;;;;16.88;89.50;101241.59;125198;1092;64339;-80
2021/07/09 02:27:55;;;;;;;4.60;2.70;;;;;;;16.87;89.56;101242.59;124957;1092;64233;-79
2021/07/09 02:30:25;;;;;;;6.60;3.13;;;;;;;16.88;89.93;101233.55;125135;1093;64369;-79
2021/07/09 02:32:53;;;;;;;5.70;2.97;;;;;;;16.87;89.85;101237.23;125217;1093;64252;-79
2021/07/09 02:35:24;;;;;;;4.10;3.27;;;;;;;16.86;89.87;101236.42;125143;1092;64285;-79
2021/07/09 02:37:53;;;;;;;5.45;3.90;;;;;;;16.88;90.22;101228.19;125886;1091;64137;-79
2021/07/09 02:40:24;;;;;;;4.93;3.10;;;;;;;16.88;90.22;101229.00;125232;1092;64250;-80
2021/07/09 02:42:55;;;;;;;4.60;3.47;;;;;;;16.87;90.34;101224.69;125272;1093;64355;-79
2021/07/09 02:45:23;;;;;;;4.43;3.30;;;;;;;16.87;90.47;101222.01;125082;1092;64262;-81
2021/07/09 02:48:05;;;;;;;4.93;3.67;;;;;;;16.85;90.22;101220.54;125135;1092;64307;-79
2021/07/09 02:50:32;;;;;;;5.53;4.07;;;;;;;16.86;90.47;101216.84;124978;1093;64342;-80
2021/07/09 02:53:00;;;;;;;5.63;3.87;;;;;;;16.85;90.78;101223.22;124968;1092;64291;-79
2021/07/09 02:55:27;;;;;;;6.20;4.10;;;;;;;16.80;90.67;101218.47;125065;1093;64720;-81
2021/07/09 02:57:54;;;;;;;19.63;5.47;;;;;;;16.78;91.05;101217.00;125187;1093;65021;-79
2021/07/09 03:00:21;;;;;;;4.73;3.67;;;;;;;16.72;91.09;101223.98;125205;1092;64285;-81
2021/07/09 03:02:49;;;;;;;8.00;3.77;;;;;;;16.66;91.44;101220.28;125082;1091;64298;-79
2021/07/09 03:05:16;;;;;;;8.10;3.07;;;;;;;16.61;91.92;101220.05;125158;1093;64377;-80
2021/07/09 03:07:44;;;;;;;5.73;4.03;;;;;;;16.58;91.77;101223.14;125146;1093;64310;-79
2021/07/09 03:10:13;;;;;;;10.70;4.10;;;;;;;16.57;92.00;101210.76;125151;1092;64310;-78
2021/07/09 03:12:43;;;;;;;6.77;3.47;;;;;;;16.55;92.26;101202.09;125088;1093;64243;-79
2021/07/09 03:15:11;;;;;;;5.27;4.43;;;;;;;16.52;92.59;101202.52;125023;1093;64288;-78
2021/07/09 03:17:39;;;;;;;6.13;3.37;;;;;;;16.50;93.17;101199.22;125011;1093;64323;-78
2021/07/09 03:20:09;;;;;;;6.57;5.03;;;;;;;16.49;93.39;101197.55;124965;1093;64320;-78
2021/07/09 03:22:37;;;;;;;8.15;5.90;;;;;;;16.47;93.74;101188.92;125095;1093;64283;-78
2021/07/09 03:25:06;;;;;;;6.37;4.07;;;;;;;16.45;93.88;101190.97;125022;1093;64285;-79
2021/07/09 03:27:33;;;;;;;7.10;5.33;;;;;;;16.44;93.91;101183.95;125462;1093;64208;-78
2021/07/09 03:30:00;;;;;;;7.43;4.67;;;;;;;16.45;94.01;101180.26;125037;1092;64288;-78
2021/07/09 03:32:30;;;;;;;8.40;5.83;;;;;;;16.45;94.40;101181.08;125370;1093;64419;-79
2021/07/09 03:34:57;;;;;;;10.83;5.83;;;;;;;16.46;94.19;101184.58;125038;1093;64298;-78
2021/07/09 03:37:24;;;;;;;7.45;5.65;;;;;;;16.47;94.27;101188.92;125029;1093;64287;-78
2021/07/09 03:39:51;;;;;;;7.93;5.07;;;;;;;16.48;94.71;101182.52;125118;1093;64288;-79
2021/07/09 03:42:18;;;;;;;14.23;6.17;;;;;;;16.46;94.64;101174.68;125077;1091;64211;-81
2021/07/09 03:44:45;;;;;;;8.97;6.80;;;;;;;16.47;94.78;101173.67;124943;1092;64358;-79
2021/07/09 03:47:13;;;;;;;5.33;4.63;;;;;;;16.50;95.15;101162.53;125141;1092;64288;-78
2021/07/09 03:49:40;;;;;;;6.97;5.50;;;;;;;16.52;94.84;101154.31;125144;1092;64243;-78
2021/07/09 03:52:07;;;;;;;7.53;4.83;;;;;;;16.52;94.90;101148.95;125032;1093;64293;-78
2021/07/09 03:54:35;;;;;;;15.77;5.73;;;;;;;16.53;95.04;101147.91;125094;1093;64382;-79
2021/07/09 03:57:03;;;;;;;12.17;6.47;;;;;;;16.54;94.78;101152.26;125029;1092;64744;-79
2021/07/09 03:59:30;;;;;;;6.00;5.03;;;;;;;16.56;94.81;101152.88;125403;1093;64233;-79
2021/07/09 04:01:57;;;;;;;11.90;6.25;;;;;;;16.55;94.91;101151.21;125109;1093;64284;-79
2021/07/09 04:04:24;;;;;;;9.65;6.05;;;;;;;16.55;94.96;101153.89;125144;1093;64262;-79
2021/07/09 04:06:57;;;;;;;11.37;6.00;;;;;;;16.58;95.05;101147.33;125017;1092;64317;-79
2021/07/09 04:09:24;;;;;;;10.27;6.07;;;;;;;16.60;95.05;101146.09;125106;1093;64283;-81
2021/07/09 04:11:51;;;;;;;8.97;6.17;;;;;;;16.66;94.90;101141.75;125118;1092;64288;-81
2021/07/09 04:14:18;;;;;;;8.57;5.00;;;;;;;16.71;94.64;101150.83;125061;1092;64264;-79
2021/07/09 04:16:46;;;;;;;7.33;5.47;;;;;;;16.78;94.83;101158.06;125063;1093;64381;-80
2021/07/09 04:19:13;;;;;;;9.70;6.80;;;;;;;16.81;94.43;101157.67;125074;1093;64301;-81
2021/07/09 04:21:40;;;;;;;14.97;6.37;;;;;;;16.85;94.18;101156.23;125057;1092;64301;-80
2021/07/09 04:24:07;;;;;;;8.17;5.90;;;;;;;16.87;94.04;101156.84;125149;1092;64327;-79
2021/07/09 04:26:34;;;;;;;9.30;6.07;;;;;;;16.87;94.23;101164.89;125044;1092;64288;-79
2021/07/09 04:29:01;;;;;;;10.50;5.73;;;;;;;16.86;93.86;101165.93;125051;1092;64364;-79
2021/07/09 04:31:29;;;;;;;7.33;4.83;;;;;;;16.86;94.06;101169.43;124988;1093;64288;-79
2021/07/09 04:33:56;;;;;;;7.83;4.50;;;;;;;16.88;94.24;101169.23;125072;1093;64275;-78
2021/07/09 04:36:23;;;;;;;7.30;5.60;;;;;;;16.87;94.09;101164.89;125090;1093;64674;-78
2021/07/09 04:38:50;;;;;;;6.10;5.00;;;;;;;16.90;94.32;101164.50;125060;1093;64265;-80
2021/07/09 04:41:17;;;;;;;9.37;6.33;;;;;;;16.90;94.08;101162.63;125081;1093;65519;-78
2021/07/09 04:43:44;;;;;;;9.20;5.80;;;;;;;16.91;94.20;101168.81;125023;1092;64673;-81
2021/07/09 04:46:11;;;;;;;8.10;5.80;;;;;;;16.92;94.46;101162.44;125082;1092;64389;-79
2021/07/09 04:48:41;;;;;;;8.33;6.43;;;;;;;16.91;94.51;101169.63;125121;1093;64246;-79
2021/07/09 04:51:12;;;;;;;6.37;4.00;;;;;;;16.91;94.98;101163.45;125345;1093;64301;-78
2021/07/09 04:53:39;;;;;;;11.07;6.70;;;;;;;16.91;95.33;101163.45;125272;1091;64310;-79
2021/07/09 04:56:06;;;;;;;8.40;6.57;;;;;;;16.90;95.26;101167.99;125064;1092;64259;-79
2021/07/09 04:58:33;;;;;;;10.77;7.43;;;;;;;16.94;94.88;101172.92;125020;1093;64882;-79
2021/07/09 05:01:00;;;;;;;10.00;6.20;;;;;;;16.96;95.04;101162.83;125050;1093;64288;-81
2021/07/09 05:03:28;;;;;;;7.03;5.07;;;;;;;16.97;95.27;101161.81;125253;1093;64304;-80
2021/07/09 05:05:55;;;;;;;10.10;5.47;;;;;;;17.01;94.95;101163.05;124962;1093;64197;-77
2021/07/09 05:08:22;;;;;;;8.03;6.00;;;;;;;17.08;94.85;101169.23;124967;1092;64342;-78
2021/07/09 05:10:49;;;;;;;7.83;5.63;;;;;;;17.11;94.77;101171.52;124873;1093;64280;-81
2021/07/09 05:13:16;;;;;;;5.77;4.93;;;;;;;17.12;94.50;101160.56;124985;1093;64262;-75
2021/07/09 05:15:43;;;;;;;10.37;6.77;;;;;;;17.14;94.85;101162.23;125066;1093;64712;-77
2021/07/09 05:18:11;;;;;;;11.13;7.07;;;;;;;17.14;94.41;101156.86;124936;1093;64241;-76
2021/07/09 05:20:38;;;;;;;14.17;8.83;;;;;;;17.16;94.62;101155.63;124905;1093;64293;-79
2021/07/09 05:23:05;;;;;;;10.90;7.17;;;;;;;17.20;94.40;101158.72;125410;1093;64297;-75
2021/07/09 05:25:32;;;;;;;16.30;9.83;;;;;;;17.24;94.34;101155.41;124893;1093;64239;-75
2021/07/09 05:27:59;;;;;;;13.50;6.33;;;;;;;17.31;93.97;101158.08;124734;1093;64309;-75
2021/07/09 05:30:26;;;;;;;15.87;10.00;;;;;;;17.35;93.69;101169.23;124813;1092;64365;-75
2021/07/09 05:32:55;;;;;;;13.20;9.23;;;;;;;17.39;93.45;101165.10;124729;1092;64312;-76
2021/07/09 05:35:22;;;;;;;16.63;8.47;;;;;;;17.42;93.35;101156.63;124937;1093;64352;-75
2021/07/09 05:37:49;;;;;;;17.55;9.50;;;;;;;17.44;93.20;101152.69;124874;1092;64285;-75
2021/07/09 05:40:17;;;;;;;11.03;6.73;;;;;;;17.47;92.99;101157.66;124860;1093;64307;-77
2021/07/09 05:42:44;;;;;;;17.25;8.05;;;;;;;17.48;92.80;101170.02;124900;1093;64310;-74
2021/07/09 05:45:12;;;;;;;18.27;9.40;;;;;;;17.45;92.68;101175.81;124878;1093;64288;-75
2021/07/09 05:47:42;;;;;;;15.47;8.87;;;;;;;17.42;92.94;101170.84;124884;1093;64415;-74
2021/07/09 05:50:09;;;;;;;14.27;8.87;;;;;;;17.40;93.01;101172.09;124907;1093;65484;-74
2021/07/09 05:52:42;;;;;;;9.00;6.40;;;;;;;17.37;93.33;101173.34;124791;1093;64433;-75
2021/07/09 05:55:17;;;;;;;16.77;8.97;;;;;;;17.39;93.10;101184.69;124896;1093;64486;-77
2021/07/09 05:57:44;;;;;;;9.45;7.05;;;;;;;17.41;93.17;101179.13;124892;1093;64285;-75
2021/07/09 06:00:12;;;;;;;13.97;9.10;;;;;;;17.43;93.08;101171.70;124809;1093;64999;-76
2021/07/09 06:02:39;;;;;;;15.93;9.43;;;;;;;17.45;93.32;101175.81;124753;1093;64345;-75
2021/07/09 06:05:08;;;;;;;24.30;15.77;;;;;;;17.51;93.23;101174.98;124990;1093;64285;-75
2021/07/09 06:07:36;;;;;;;10.83;8.20;;;;;;;17.58;93.31;101176.83;124939;1092;64300;-74
2021/07/09 06:10:05;;;;;;;14.10;9.37;;;;;;;17.59;92.92;101179.28;124903;1092;64329;-75
2021/07/09 06:12:33;;;;;;;12.80;6.93;;;;;;;17.58;92.89;101174.97;125020;1092;64664;-74
2021/07/09 06:15:00;;;;;;;22.07;10.33;;;;;;;17.59;93.37;101181.14;125151;1093;64287;-75
2021/07/09 06:17:28;;;;;;;10.57;7.77;;;;;;;17.60;93.47;101180.13;125242;1093;64297;-77
2021/07/09 06:19:55;;;;;;;12.37;8.07;;;;;;;17.55;93.76;101179.91;124972;1093;64371;-77
2021/07/09 06:22:23;;;;;;;16.73;10.57;;;;;;;17.52;93.44;101173.94;125199;1092;64293;-77
2021/07/09 06:24:50;;;;;;;16.10;10.30;;;;;;;17.54;93.75;101184.46;125242;1093;64348;-77
2021/07/09 06:27:20;;;;;;;19.17;8.97;;;;;;;17.53;93.97;101189.02;124984;1093;64369;-77
2021/07/09 06:29:47;;;;;;;22.40;11.23;;;;;;;17.54;93.57;101184.46;124949;1093;64371;-77
2021/07/09 06:32:14;;;;;;;22.10;10.73;;;;;;;17.55;93.61;101185.28;124999;1093;64293;-76
2021/07/09 06:34:42;;;;;;;20.30;11.53;;;;;;;17.58;94.06;101184.88;125113;1092;64284;-77
2021/07/09 06:37:09;;;;;;;12.73;9.30;;;;;;;17.61;93.67;101195.99;124941;1093;64452;-76
2021/07/09 06:39:36;;;;;;;16.33;9.93;;;;;;;17.65;93.69;101188.36;125075;1092;64300;-74
2021/07/09 06:42:03;;;;;;;18.33;10.17;;;;;;;17.68;94.03;101190.61;124934;1093;64416;-75
2021/07/09 06:44:30;;;;;;;10.63;8.80;;;;;;;17.70;93.43;101193.91;125197;1093;64288;-74
2021/07/09 06:46:58;;;;;;;14.13;8.67;;;;;;;17.67;93.13;101199.70;125121;1093;64307;-75
2021/07/09 06:49:25;;;;;;;14.13;8.43;;;;;;;17.66;93.23;101198.89;124915;1092;64355;-74
2021/07/09 06:51:52;;;;;;;13.70;8.60;;;;;;;17.66;93.43;101195.36;125053;1092;64301;-76
2021/07/09 06:54:19;;;;;;;12.40;8.63;;;;;;;17.65;93.13;101201.77;125037;1093;64173;-75
2021/07/09 06:56:46;;;;;;;19.13;9.67;;;;;;;17.64;93.35;101202.83;124884;1092;64445;-75
2021/07/09 06:59:16;;;;;;;17.30;8.33;;;;;;;17.61;93.47;101208.59;124844;1092;64315;-75
2021/07/09 07:01:43;;;;;;;16.70;9.17;;;;;;;17.58;93.51;101209.02;125033;1091;64258;-75
2021/07/09 07:04:11;;;;;;;11.67;7.07;;;;;;;17.58;93.96;101212.52;125055;1092;64325;-75
2021/07/09 07:06:38;;;;;;;16.03;8.83;;;;;;;17.56;93.64;101208.41;124912;1092;64384;-75
2021/07/09 07:09:05;;;;;;;15.50;9.03;;;;;;;17.55;93.86;101202.19;125117;1093;64300;-74
2021/07/09 07:11:32;;;;;;;13.60;9.40;;;;;;;17.54;93.72;101216.66;124839;1093;64262;-75
2021/07/09 07:13:59;;;;;;;15.05;9.55;;;;;;;17.54;94.11;101222.02;124964;1093;64282;-75
2021/07/09 07:16:26;;;;;;;20.63;12.10;;;;;;;17.56;94.05;101209.22;125132;1093;64326;-75
2021/07/09 07:18:54;;;;;;;14.50;8.40;;;;;;;17.59;93.95;101208.79;125142;1092;64234;-78
2021/07/09 07:21:21;;;;;;;13.90;9.53;;;;;;;17.62;93.81;101212.94;125181;1093;64265;-77
2021/07/09 07:23:48;;;;;;;18.53;10.10;;;;;;;17.63;93.56;101214.58;125053;1092;64348;-78
2021/07/09 07:26:15;;;;;;;19.73;9.77;;;;;;;17.67;93.86;101215.81;125316;1093;64441;-77
2021/07/09 07:28:42;;;;;;;12.90;9.40;;;;;;;17.71;93.80;101214.36;125339;1092;64346;-77
2021/07/09 07:31:11;;;;;;;18.50;10.20;;;;;;;17.73;93.62;101209.61;125172;1093;64301;-76
2021/07/09 07:33:39;;;;;;;11.63;9.33;;;;;;;17.77;93.62;101210.84;125174;1093;64291;-75
2021/07/09 07:36:17;;;;;;;19.27;9.77;;;;;;;17.82;93.45;101211.05;125235;1093;64327;-75
2021/07/09 07:38:46;;;;;;;12.37;7.73;;;;;;;17.88;93.26;101210.22;125191;1092;64352;-75
2021/07/09 07:41:17;;;;;;;14.10;9.30;;;;;;;17.89;92.91;101211.88;125460;1093;64982;-75
2021/07/09 07:43:46;;;;;;;12.27;8.27;;;;;;;17.87;93.19;101211.27;125174;1093;64246;-73
2021/07/09 07:46:14;;;;;;;8.00;5.97;;;;;;;17.84;93.32;101210.85;128552;1093;62047;-73
2021/07/09 07:48:43;;;;;;;10.97;8.07;;;;;;;17.82;93.54;101208.37;124858;1093;64282;-76
2021/07/09 07:51:12;;;;;;;10.50;6.93;;;;;;;17.76;93.67;101206.48;126688;1093;64384;-75
2021/07/09 07:53:39;;;;;;;9.53;7.50;;;;;;;17.72;93.84;101210.63;124901;1093;64326;-74
2021/07/09 07:56:07;;;;;;;14.23;9.27;;;;;;;17.69;94.28;101213.74;124764;1093;64317;-73
2021/07/09 07:58:38;;;;;;;13.00;7.80;;;;;;;17.65;94.02;101212.51;124885;1093;64277;-74
2021/07/09 08:01:08;;;;;;;13.93;9.30;;;;;;;17.61;94.18;101205.91;124902;1093;64508;-75
2021/07/09 08:03:37;;;;;;;12.45;8.60;;;;;;;17.62;94.45;101211.07;124908;1093;64355;-73
2021/07/09 08:06:05;;;;;;;12.97;9.37;;;;;;;17.65;94.48;101204.45;125633;1092;64297;-72
2021/07/09 08:08:38;;;;;;;16.67;8.90;;;;;;;17.66;94.60;101206.09;124922;1092;64358;-73
2021/07/09 08:11:05;;;;;;;12.70;8.90;;;;;;;17.68;94.64;101202.19;124926;1092;64231;-75
2021/07/09 08:13:32;;;;;;;13.50;7.93;;;;;;;17.67;94.35;101205.08;124859;1091;64269;-74
2021/07/09 08:16:00;;;;;;;15.93;7.63;;;;;;;17.66;94.36;101212.30;124891;1093;64359;-74
2021/07/09 08:18:28;;;;;;;11.45;8.85;;;;;;;17.64;94.22;101206.33;124904;1093;64323;-73
2021/07/09 08:20:55;;;;;;;10.70;5.00;;;;;;;17.64;94.47;101210.88;124906;1093;64204;-75
2021/07/09 08:23:26;;;;;;;10.50;5.90;;;;;;;17.62;94.43;101212.94;125164;1093;64272;-74
2021/07/09 08:25:53;;;;;;;14.67;8.93;;;;;;;17.60;94.64;101206.95;125035;1093;64210;-73
2021/07/09 08:28:21;;;;;;;10.03;6.30;;;;;;;17.60;94.47;101210.45;124870;1092;64285;-73
2021/07/09 08:30:48;;;;;;;13.10;9.43;;;;;;;17.57;94.51;101210.86;124864;1093;64301;-73
2021/07/09 08:33:15;;;;;;;13.90;9.47;;;;;;;17.58;94.60;101206.34;124946;1093;64230;-73
2021/07/09 08:35:43;;;;;;;13.57;8.00;;;;;;;17.57;94.80;101205.49;124874;1093;64307;-74
2021/07/09 08:38:10;;;;;;;13.03;8.13;;;;;;;17.60;94.54;101201.59;124744;1092;64300;-74
2021/07/09 08:40:38;;;;;;;10.83;6.20;;;;;;;17.63;95.01;101203.84;124966;1092;64371;-73
2021/07/09 08:43:27;;;;;;;16.17;10.37;;;;;;;17.70;94.01;101208.17;124945;1093;64300;-73
2021/07/09 08:45:56;;;;;;;11.07;7.87;;;;;;;17.76;93.33;101211.86;124777;1093;64298;-73
2021/07/09 08:48:27;;;;;;;9.97;7.23;;;;;;;17.83;93.80;101210.03;125117;1092;64265;-72
2021/07/09 08:50:57;;;;;;;12.87;7.47;;;;;;;17.89;93.26;101203.83;125115;1093;64318;-72
2021/07/09 08:53:25;;;;;;;10.90;8.30;;;;;;;17.96;93.40;101208.33;124974;1093;65777;-72
2021/07/09 08:55:53;;;;;;;11.43;7.73;;;;;;;18.03;93.00;101203.77;124832;1093;64250;-72
2021/07/09 08:58:20;;;;;;;13.90;8.67;;;;;;;18.00;91.64;101194.30;124736;1093;64237;-72
2021/07/09 09:00:47;;;;;;;9.00;6.50;;;;;;;18.03;91.43;101199.22;124706;1092;64393;-72
2021/07/09 09:03:25;;;;;;;10.23;7.40;;;;;;;18.01;90.89;101195.92;124930;1093;64288;-74
2021/07/09 09:05:59;;;;;;;14.60;8.03;;;;;;;18.07;90.94;101199.63;124865;1093;64297;-73
2021/07/09 09:08:29;;;;;;;9.95;5.60;;;;;;;18.14;91.27;101201.23;124893;1093;64397;-73
2021/07/09 09:10:58;;;;;;;12.83;9.07;;;;;;;18.10;90.70;101205.38;124939;1092;64307;-74
2021/07/09 09:13:27;;;;;;;11.57;7.67;;;;;;;18.12;91.28;101203.31;124967;1092;64365;-74
2021/07/09 09:16:10;;;;;;;9.00;6.53;;;;;;;18.12;90.70;101197.13;124937;1093;64367;-73
2021/07/09 09:18:45;;;;;;;12.30;7.60;;;;;;;18.10;90.42;101204.56;124999;1092;64311;-73
2021/07/09 09:21:18;;;;;;;12.05;8.15;;;;;;;18.08;90.21;101201.27;125434;1092;64272;-75
2021/07/09 09:23:48;;;;;;;16.03;11.47;;;;;;;18.11;90.40;101207.05;124915;1093;64255;-74
2021/07/09 09:26:15;;;;;;;11.17;8.17;;;;;;;18.15;90.74;101196.72;124989;1091;64262;-75
2021/07/09 09:28:42;;;;;;;8.75;6.10;;;;;;;18.13;89.63;101206.84;125006;1093;64352;-74
2021/07/09 09:31:09;;;;;;;11.97;7.63;;;;;;;18.11;90.04;101196.30;124957;1093;64447;-72
2021/07/09 09:33:37;;;;;;;9.27;6.83;;;;;;;18.14;90.33;101200.42;124947;1093;64282;-73
2021/07/09 09:36:07;;;;;;;11.95;6.90;;;;;;;18.14;90.52;101206.61;124957;1092;64304;-74
2021/07/09 09:38:35;;;;;;;11.07;8.07;;;;;;;18.15;90.65;101196.72;124951;1093;64317;-73
2021/07/09 09:41:02;;;;;;;13.10;8.50;;;;;;;18.20;91.02;101194.20;125103;1093;64339;-74
2021/07/09 09:43:34;;;;;;;13.47;8.87;;;;;;;18.28;91.40;101193.15;125058;1093;64284;-73
2021/07/09 09:46:05;;;;;;;13.17;9.53;;;;;;;18.37;91.57;101193.72;125075;1093;64288;-71
2021/07/09 09:48:47;;;;;;;25.20;16.00;;;;;;;18.49;91.01;101195.52;125073;1093;64342;-74
2021/07/09 09:51:38;;;;;;;15.65;9.35;;;;;;;18.60;90.50;101185.13;125072;1092;64336;-73
2021/07/09 09:54:10;;;;;;;17.33;12.50;;;;;;;18.70;90.08;101188.98;125042;1093;64294;-74
2021/07/09 09:56:46;;;;;;;10.43;7.30;;;;;;;18.78;89.76;101182.53;125140;1093;64474;-74
2021/07/09 09:59:18;;;;;;;9.53;7.13;;;;;;;18.81;88.66;101182.12;124875;1093;64440;-74
2021/07/09 10:02:14;;;;;;;10.25;7.50;;;;;;;18.80;88.45;101185.83;124902;1093;64284;-73
2021/07/09 10:04:42;;;;;;;10.20;6.80;;;;;;;18.80;88.98;101182.33;124865;1093;64259;-73
2021/07/09 10:07:14;;;;;;;11.33;8.67;;;;;;;18.79;89.24;101188.76;124886;1093;64281;-73
2021/07/09 10:09:41;;;;;;;8.70;6.87;;;;;;;18.73;88.84;101195.78;124956;1093;64304;-73
2021/07/09 10:12:09;;;;;;;7.57;6.30;;;;;;;18.71;89.36;101195.99;124895;1093;64294;-73
2021/07/09 10:14:39;;;;;;;8.80;6.40;;;;;;;18.63;89.42;101198.94;124895;1093;64976;-73
2021/07/09 10:17:08;;;;;;;9.60;7.53;;;;;;;18.58;89.87;101200.64;125072;1093;64301;-74
2021/07/09 10:19:37;;;;;;;10.27;7.80;;;;;;;18.53;90.22;101201.26;124978;1093;64303;-73
2021/07/09 10:22:21;;;;;;;7.37;5.53;;;;;;;18.55;90.80;101201.87;124910;1093;64287;-75
2021/07/09 10:24:51;;;;;;;7.60;6.57;;;;;;;18.48;91.03;101206.47;125041;1092;64881;-74
2021/07/09 10:27:24;;;;;;;11.30;8.47;;;;;;;18.45;91.07;101201.54;125013;1092;64284;-74
2021/07/09 10:29:55;;;;;;;11.17;7.70;;;;;;;18.37;91.51;101205.28;124859;1093;64707;-74
2021/07/09 10:32:38;;;;;;;9.13;7.00;;;;;;;18.36;91.93;101202.80;124920;1093;64284;-74
2021/07/09 10:35:37;;;;;;;12.53;6.67;;;;;;;18.28;92.04;101206.58;124909;1093;64211;-73
2021/07/09 10:38:14;;;;;;;8.83;6.63;;;;;;;18.19;92.30;101205.15;124939;1093;64326;-74
2021/07/09 10:40:42;;;;;;;8.77;7.10;;;;;;;18.14;92.79;101200.42;124999;1093;64303;-74
2021/07/09 10:43:10;;;;;;;9.00;6.90;;;;;;;18.11;93.01;101200.86;124918;1093;64288;-74
2021/07/09 10:45:40;;;;;;;7.37;5.60;;;;;;;18.09;93.12;101203.75;126140;1093;64262;-74
2021/07/09 10:48:17;;;;;;;15.40;12.20;;;;;;;18.06;93.65;101198.81;125257;1093;64386;-73
2021/07/09 10:50:52;;;;;;;7.50;5.40;;;;;;;18.10;93.42;101212.63;125577;1093;64288;-74
2021/07/09 10:53:23;;;;;;;15.80;10.85;;;;;;;18.13;94.23;101214.90;124983;1093;64211;-76
2021/07/09 10:55:57;;;;;;;9.37;6.27;;;;;;;18.21;93.58;101219.19;125134;1092;64383;-75
2021/07/09 10:58:24;;;;;;;;;;;;;;;18.30;93.93;101216.06;125200;1093;64230;-78
2021/07/09 11:01:05;;;;;;;7.67;4.30;;;;;;;18.38;93.63;101214.97;125208;1093;64317;-71
2021/07/09 11:03:40;;;;;;;9.20;6.35;;;;;;;18.45;93.65;101204.22;125272;1093;64288;-73
2021/07/09 11:06:13;;;;;;;9.50;7.90;;;;;;;18.52;93.34;101219.25;125155;1092;64301;-71
2021/07/09 11:09:03;;;;;;;9.30;6.97;;;;;;;18.59;93.14;101213.84;125126;1092;64211;-72
2021/07/09 11:11:50;;;;;;;8.23;6.67;;;;;;;18.66;92.99;101214.64;125545;1093;64394;-71
2021/07/09 11:14:36;;;;;;;8.50;7.05;;;;;;;18.79;93.05;101202.20;125166;1093;64445;-72
2021/07/09 11:17:26;;;;;;;9.33;7.43;;;;;;;18.87;92.63;101204.59;124991;1093;64236;-73
2021/07/09 11:20:13;;;;;;;7.20;5.00;;;;;;;18.96;91.55;101200.63;124951;1093;64231;-73
2021/07/09 11:22:46;;;;;;;11.93;6.30;;;;;;;19.00;91.05;101204.52;124790;1093;64653;-73
2021/07/09 11:25:21;;;;;;;6.53;5.57;;;;;;;19.05;90.99;101212.75;124999;1092;64208;-72